createdAt,value
2023-04-02T00:00:25.157Z,97397.88
2023-04-02T00:03:42.547Z,97393.53
2023-04-02T00:06:45.446Z,97396.28
2023-04-02T00:09:48.387Z,97396.34
2023-04-02T00:13:33.590Z,97407.06
2023-04-02T00:16:36.823Z,97406.12
2023-04-02T00:19:51.749Z,97406.75
2023-04-02T00:22:56.274Z,97400.47
2023-04-02T00:25:59.059Z,97400.78
2023-04-02T00:29:03.969Z,97392.09
2023-04-02T00:32:06.795Z,97406.91
2023-04-02T00:35:29.525Z,97409.59
2023-04-02T00:38:33.656Z,97408.63
2023-04-02T00:41:38.795Z,97406.12
2023-04-02T00:44:44.315Z,97403.34
2023-04-02T00:47:47.285Z,97401.28
2023-04-02T00:50:51.360Z,97409.72
2023-04-02T00:53:56.449Z,97405.69
2023-04-02T00:56:59.620Z,97400.91
2023-04-02T01:00:19.315Z,97414.03
2023-04-02T01:03:24.591Z,97414.03
2023-04-02T01:06:37.314Z,97409.44
2023-04-02T01:09:49.086Z,97416.81
2023-04-02T01:13:18.884Z,97418.84
2023-04-02T01:16:30.729Z,97431.75
2023-04-02T01:19:50.480Z,97437.09
2023-04-02T01:23:08.293Z,97439.34
2023-04-02T01:26:44.751Z,97434.25
2023-04-02T01:29:51.393Z,97445.19
2023-04-02T01:32:54.724Z,97437.41
2023-04-02T01:36:15.557Z,97433.31
2023-04-02T01:39:33.320Z,97437.91
2023-04-02T01:42:56.385Z,97440.06
2023-04-02T01:45:59.846Z,97443.88
2023-04-02T01:49:18.579Z,97436.06
2023-04-02T01:52:38.220Z,97438.81
2023-04-02T01:56:10.446Z,97442.50
2023-04-02T01:59:17.035Z,97442.69
2023-04-02T02:02:21.899Z,97441.09
2023-04-02T02:05:25.640Z,97439.56
2023-04-02T02:08:38.770Z,97445.69
2023-04-02T02:11:42.141Z,97452.59
2023-04-02T02:14:52.354Z,97451.44
2023-04-02T02:18:02.359Z,97448.56
2023-04-02T02:21:08.155Z,97435.53
2023-04-02T02:24:26.841Z,97441.25
2023-04-02T02:27:30.118Z,97450.97
2023-04-02T02:30:47.418Z,97449.22
2023-04-02T02:33:51.992Z,97455.25
2023-04-02T02:37:04.759Z,97455.19
2023-04-02T02:40:12.926Z,97438.47
2023-04-02T02:43:17.162Z,97440.22
2023-04-02T02:46:22.452Z,97454.91
2023-04-02T02:49:32.321Z,97451.47
2023-04-02T02:52:37.087Z,97451.47
2023-04-02T02:55:40.559Z,97449.03
2023-04-02T02:58:43.991Z,97437.22
2023-04-02T03:01:47.517Z,97447.69
2023-04-02T03:04:53.162Z,97442.56
2023-04-02T03:07:57.419Z,97444.34
2023-04-02T03:11:24.792Z,97440.06
2023-04-02T03:14:53.682Z,97451.78
2023-04-02T03:18:03.259Z,97443.22
2023-04-02T03:21:18.610Z,97446.91
2023-04-02T03:24:36.832Z,97442.63
2023-04-02T03:27:42.688Z,97442.00
2023-04-02T03:30:49.825Z,97444.16
2023-04-02T03:33:57.536Z,97445.22
2023-04-02T03:37:08.022Z,97443.81
2023-04-02T03:40:22.145Z,97443.69
2023-04-02T03:43:27.613Z,97447.16
2023-04-02T03:46:42.630Z,97456.03
2023-04-02T03:49:55.994Z,97464.09
2023-04-02T03:53:01.600Z,97465.91
2023-04-02T03:56:05.060Z,97465.13
2023-04-02T03:59:22.288Z,97461.81
2023-04-02T04:02:34.772Z,97474.31
2023-04-02T04:05:46.040Z,97466.34
2023-04-02T04:09:16.535Z,97476.50
2023-04-02T04:12:48.793Z,97479.28
2023-04-02T04:15:56.341Z,97482.06
2023-04-02T04:19:10.909Z,97479.34
2023-04-02T04:22:20.042Z,97484.63
2023-04-02T04:25:33.994Z,97486.19
2023-04-02T04:28:59.901Z,97495.75
2023-04-02T04:32:32.111Z,97495.00
2023-04-02T04:35:38.878Z,97502.31
2023-04-02T04:38:49.382Z,97506.00
2023-04-02T04:41:53.853Z,97514.97
2023-04-02T04:45:21.981Z,97507.19
2023-04-02T04:48:29.632Z,97516.13
2023-04-02T04:51:44.773Z,97514.38
2023-04-02T04:54:48.147Z,97510.78
2023-04-02T04:57:56.485Z,97513.41
2023-04-02T05:01:07.737Z,97508.19
2023-04-02T05:04:11.652Z,97516.94
2023-04-02T05:07:19.063Z,97519.47
2023-04-02T05:10:34.871Z,97513.97
2023-04-02T05:13:52.962Z,97512.78
2023-04-02T05:17:07.960Z,97517.88
2023-04-02T05:20:24.802Z,97516.84
2023-04-02T05:23:31.348Z,97514.03
2023-04-02T05:26:42.356Z,97526.25
2023-04-02T05:29:48.561Z,97532.34
2023-04-02T05:32:58.823Z,97533.09
2023-04-02T05:36:11.803Z,97531.16
2023-04-02T05:39:22.651Z,97527.00
2023-04-02T05:42:31.859Z,97541.84
2023-04-02T05:45:39.625Z,97549.59
2023-04-02T05:48:44.789Z,97542.28
2023-04-02T05:51:51.289Z,97538.81
2023-04-02T05:55:04.616Z,97557.66
2023-04-02T05:58:39.592Z,97550.78
2023-04-02T06:01:48.263Z,97558.03
2023-04-02T06:05:00.105Z,97560.03
2023-04-02T06:08:13.535Z,97563.69
2023-04-02T06:11:30.536Z,97560.53
2023-04-02T06:14:33.611Z,97569.81
2023-04-02T06:17:47.380Z,97569.34
2023-04-02T06:20:51.089Z,97569.69
2023-04-02T06:23:55.090Z,97577.41
2023-04-02T06:27:02.991Z,97575.03
2023-04-02T06:30:15.034Z,97577.09
2023-04-02T06:33:19.155Z,97583.47
2023-04-02T06:36:24.567Z,97593.31
2023-04-02T06:39:29.856Z,97594.31
2023-04-02T06:42:36.331Z,97587.38
2023-04-02T06:45:42.866Z,97588.19
2023-04-02T06:48:48.074Z,97587.34
2023-04-02T06:51:52.846Z,97583.69
2023-04-02T06:54:56.438Z,97581.06
2023-04-02T06:57:59.801Z,97593.44
2023-04-02T07:01:03.976Z,97590.91
2023-04-02T07:04:08.580Z,97592.59
2023-04-02T07:07:12.090Z,97597.75
2023-04-02T07:10:16.395Z,97598.44
2023-04-02T07:13:22.386Z,97598.31
2023-04-02T07:16:27.409Z,97594.31
2023-04-02T07:19:31.414Z,97599.09
2023-04-02T07:22:35.090Z,97597.97
2023-04-02T07:25:39.016Z,97603.31
2023-04-02T07:28:42.069Z,97605.72
2023-04-02T07:31:45.451Z,97614.53
2023-04-02T07:34:49.177Z,97618.66
2023-04-02T07:37:53.002Z,97617.13
2023-04-02T07:40:55.865Z,97613.47
2023-04-02T07:43:58.996Z,97621.97
2023-04-02T07:47:01.903Z,97628.22
2023-04-02T07:50:05.962Z,97627.62
2023-04-02T07:53:27.174Z,97625.78
2023-04-02T07:56:31.691Z,97637.69
2023-04-02T07:59:34.573Z,97640.09
2023-04-02T08:02:37.737Z,97638.47
2023-04-02T08:05:40.760Z,97638.91
2023-04-02T08:08:43.674Z,97642.75
2023-04-02T08:11:46.867Z,97640.06
2023-04-02T08:14:49.755Z,97642.06
2023-04-02T08:17:53.585Z,97643.44
2023-04-02T08:20:57.362Z,97647.19
2023-04-02T08:24:00.424Z,97633.38
2023-04-02T08:27:03.194Z,97638.13
2023-04-02T08:30:08.060Z,97632.06
2023-04-02T08:33:18.629Z,97646.09
2023-04-02T08:36:27.677Z,97657.50
2023-04-02T08:39:33.177Z,97656.25
2023-04-02T08:43:06.239Z,97652.19
2023-04-02T08:46:31.392Z,97657.50
2023-04-02T08:50:15.411Z,97662.50
2023-04-02T08:53:21.679Z,97668.72
2023-04-02T08:56:32.583Z,97668.09
2023-04-02T08:59:38.231Z,97673.72
2023-04-02T09:02:47.120Z,97673.16
2023-04-02T09:05:51.289Z,97670.47
2023-04-02T09:08:54.969Z,97674.44
2023-04-02T09:12:05.739Z,97672.72
2023-04-02T09:15:47.580Z,97676.78
2023-04-02T09:18:53.062Z,97682.84
2023-04-02T09:22:01.903Z,97684.31
2023-04-02T09:25:06.477Z,97683.19
2023-04-02T09:28:11.003Z,97689.75
2023-04-02T09:31:20.784Z,97679.28
2023-04-02T09:34:35.529Z,97687.59
2023-04-02T09:37:38.878Z,97687.94
2023-04-02T09:40:52.440Z,97680.69
2023-04-02T09:44:20.050Z,97687.88
2023-04-02T09:47:27.466Z,97690.00
2023-04-02T09:50:32.922Z,97692.19
2023-04-02T09:53:39.866Z,97691.94
2023-04-02T09:57:04.024Z,97692.50
2023-04-02T10:00:30.435Z,97690.84
2023-04-02T10:03:43.218Z,97693.28
2023-04-02T10:06:50.111Z,97690.91
2023-04-02T10:10:14.518Z,97692.84
2023-04-02T10:13:24.788Z,97696.34
2023-04-02T10:16:34.684Z,97695.81
2023-04-02T10:19:56.576Z,97691.50
2023-04-02T10:22:59.736Z,97677.66
2023-04-02T10:26:08.473Z,97679.19
2023-04-02T10:29:53.439Z,97677.37
2023-04-02T10:32:58.169Z,97678.69
2023-04-02T10:36:04.383Z,97682.72
2023-04-02T10:39:29.622Z,97688.78
2023-04-02T10:42:59.045Z,97690.66
2023-04-02T10:46:13.783Z,97681.03
2023-04-02T10:49:21.415Z,97687.72
2023-04-02T10:52:31.393Z,97684.00
2023-04-02T10:55:40.933Z,97681.25
2023-04-02T10:59:17.731Z,97684.75
2023-04-02T11:02:35.036Z,97682.44
2023-04-02T11:05:44.165Z,97691.31
2023-04-02T11:08:49.346Z,97668.34
2023-04-02T11:11:54.597Z,97685.22
2023-04-02T11:14:57.992Z,97684.03
2023-04-02T11:18:01.266Z,97681.91
2023-04-02T11:21:08.268Z,97682.19
2023-04-02T11:24:36.998Z,97669.44
2023-04-02T11:27:39.831Z,97678.28
2023-04-02T11:30:42.687Z,97682.19
2023-04-02T11:33:48.112Z,97679.13
2023-04-02T11:36:55.083Z,97681.53
2023-04-02T11:40:00.375Z,97686.56
2023-04-02T11:43:36.000Z,97676.19
2023-04-02T11:46:41.052Z,97625.66
2023-04-02T11:49:56.478Z,97677.84
2023-04-02T11:53:04.335Z,97674.13
2023-04-02T11:56:08.054Z,97681.97
2023-04-02T11:59:20.590Z,97673.94
2023-04-02T12:02:29.426Z,97676.87
2023-04-02T12:05:37.613Z,97665.34
2023-04-02T12:08:56.986Z,97669.16
2023-04-02T12:12:15.744Z,97667.38
2023-04-02T12:15:44.432Z,97664.94
2023-04-02T12:18:51.243Z,97667.56
2023-04-02T12:21:54.343Z,97667.66
2023-04-02T12:25:04.132Z,97670.22
2023-04-02T12:28:09.671Z,97666.22
2023-04-02T12:31:15.072Z,97667.16
2023-04-02T12:34:23.541Z,97662.69
2023-04-02T12:37:30.712Z,97665.34
2023-04-02T12:40:33.380Z,97656.91
2023-04-02T12:43:37.999Z,97655.09
2023-04-02T12:46:41.049Z,97645.44
2023-04-02T12:49:44.540Z,97645.31
2023-04-02T12:52:50.049Z,97649.31
2023-04-02T12:55:54.113Z,97642.56
2023-04-02T12:59:00.845Z,97654.31
2023-04-02T13:02:17.572Z,97641.28
2023-04-02T13:06:00.447Z,97648.16
2023-04-02T13:09:08.219Z,97647.06
2023-04-02T13:12:34.314Z,97652.53
2023-04-02T13:15:37.879Z,97652.13
2023-04-02T13:18:41.137Z,97655.69
2023-04-02T13:21:44.839Z,97655.94
2023-04-02T13:24:47.733Z,97648.97
2023-04-02T13:27:51.036Z,97660.09
2023-04-02T13:30:53.998Z,97647.25
2023-04-02T13:33:58.082Z,97643.78
2023-04-02T13:37:00.834Z,97651.53
2023-04-02T13:40:04.607Z,97653.25
2023-04-02T13:43:08.310Z,97658.44
2023-04-02T13:46:18.175Z,97654.91
2023-04-02T13:49:22.012Z,97649.41
2023-04-02T13:52:25.398Z,97654.19
2023-04-02T13:55:30.695Z,97650.38
2023-04-02T13:58:33.898Z,97662.22
2023-04-02T14:01:37.515Z,97660.03
2023-04-02T14:04:50.143Z,97660.06
2023-04-02T14:08:06.580Z,97650.50
2023-04-02T14:11:18.941Z,97656.91
2023-04-02T14:14:40.000Z,97655.25
2023-04-02T14:18:10.574Z,97653.56
2023-04-02T14:21:29.192Z,97665.06
2023-04-02T14:24:35.533Z,97688.03
2023-04-02T14:28:09.986Z,97674.84
2023-04-02T14:31:18.915Z,97696.72
2023-04-02T14:34:29.160Z,97707.28
2023-04-02T14:38:11.089Z,97719.50
2023-04-02T14:41:18.212Z,97734.91
2023-04-02T14:44:23.974Z,97753.09
2023-04-02T14:47:54.351Z,97770.66
2023-04-02T14:51:05.276Z,97782.19
2023-04-02T14:54:37.361Z,97771.81
2023-04-02T14:57:49.045Z,97763.53
2023-04-02T15:00:56.849Z,97755.75
2023-04-02T15:04:15.499Z,97770.66
2023-04-02T15:07:20.260Z,97763.13
2023-04-02T15:10:35.934Z,97760.75
2023-04-02T15:13:41.966Z,97763.31
2023-04-02T15:16:45.967Z,97768.31
2023-04-02T15:20:02.684Z,97753.91
2023-04-02T15:23:33.846Z,97763.69
2023-04-02T15:27:25.051Z,97773.41
2023-04-02T15:30:35.549Z,97766.84
2023-04-02T15:33:43.278Z,97776.50
2023-04-02T15:36:48.430Z,97768.06
2023-04-02T15:40:16.601Z,97762.88
2023-04-02T15:44:03.958Z,97770.94
2023-04-02T15:47:06.716Z,97777.75
2023-04-02T15:50:51.398Z,97794.28
2023-04-02T15:54:16.967Z,97793.06
2023-04-02T15:57:23.248Z,97806.34
2023-04-02T16:00:31.236Z,97814.69
2023-04-02T16:03:46.409Z,97812.78
2023-04-02T16:07:24.857Z,97806.59
2023-04-02T16:10:41.768Z,97812.84
2023-04-02T16:13:47.111Z,97815.75
2023-04-02T16:16:51.296Z,97815.03
2023-04-02T16:20:04.984Z,97817.19
2023-04-02T16:23:17.917Z,97800.22
2023-04-02T16:26:45.857Z,97815.69
2023-04-02T16:30:07.524Z,97806.91
2023-04-02T16:33:31.636Z,97805.16
2023-04-02T16:36:54.039Z,97804.81
2023-04-02T16:40:42.084Z,97809.19
2023-04-02T16:44:18.446Z,97811.88
2023-04-02T16:47:28.527Z,97823.34
2023-04-02T16:50:44.366Z,97820.53
2023-04-02T16:54:01.723Z,97823.06
2023-04-02T16:57:24.399Z,97828.94
2023-04-02T17:00:35.747Z,97833.16
2023-04-02T17:03:52.081Z,97838.59
2023-04-02T17:07:16.754Z,97842.34
2023-04-02T17:10:40.271Z,97841.22
2023-04-02T17:13:47.530Z,97848.69
2023-04-02T17:16:53.207Z,97849.06
2023-04-02T17:19:59.092Z,97855.56
2023-04-02T17:26:07.751Z,97864.91
2023-04-02T17:29:17.667Z,97858.25
2023-04-02T17:32:32.719Z,97850.44
2023-04-02T17:35:49.250Z,97862.16
2023-04-02T17:39:25.649Z,97869.09
2023-04-02T17:42:47.403Z,97877.09
2023-04-02T17:45:56.717Z,97880.66
2023-04-02T17:49:44.348Z,97889.53
2023-04-02T17:52:59.959Z,97891.81
2023-04-02T17:56:06.680Z,97896.91
2023-04-02T17:59:43.242Z,97894.50
2023-04-02T18:02:57.361Z,97909.06
2023-04-02T18:06:00.581Z,97918.09
2023-04-02T18:09:19.414Z,97919.50
2023-04-02T18:12:57.178Z,97928.41
2023-04-02T18:16:02.319Z,97935.97
2023-04-02T18:19:16.285Z,97949.59
2023-04-02T18:22:53.294Z,97956.22
2023-04-02T18:26:02.396Z,97963.00
2023-04-02T18:29:27.692Z,97970.50
2023-04-02T18:32:43.225Z,97975.88
2023-04-02T18:35:59.976Z,97976.09
2023-04-02T18:39:21.550Z,97980.69
2023-04-02T18:42:50.609Z,97981.00
2023-04-02T18:46:05.189Z,97985.47
2023-04-02T18:49:26.350Z,97992.81
2023-04-02T18:52:30.336Z,97994.81
2023-04-02T18:55:33.314Z,97994.94
2023-04-02T18:58:53.969Z,98001.34
2023-04-02T19:01:58.226Z,97997.09
2023-04-02T19:05:03.851Z,97997.31
2023-04-02T19:08:14.246Z,98004.63
2023-04-02T19:11:31.919Z,98012.75
2023-04-02T19:14:35.037Z,98016.53
2023-04-02T19:17:44.537Z,98019.34
2023-04-02T19:20:57.030Z,98024.66
2023-04-02T19:24:11.230Z,98024.66
2023-04-02T19:27:23.067Z,98028.50
2023-04-02T19:30:52.092Z,98039.25
2023-04-02T19:34:07.795Z,98042.37
2023-04-02T19:37:23.829Z,98048.81
2023-04-02T19:40:54.033Z,98058.16
2023-04-02T19:43:57.397Z,98050.91
2023-04-02T19:47:00.418Z,98066.31
2023-04-02T19:50:04.473Z,98070.72
2023-04-02T19:53:07.317Z,98072.94
2023-04-02T19:56:10.401Z,98057.44
2023-04-02T20:02:19.693Z,98077.25
2023-04-02T20:05:22.945Z,98090.03
2023-04-02T20:08:26.923Z,98090.31
2023-04-02T20:11:30.147Z,98102.50
2023-04-02T20:14:33.065Z,98103.53
2023-04-02T20:17:36.235Z,98105.19
2023-04-02T20:20:40.374Z,98113.72
2023-04-02T20:23:43.533Z,98123.72
2023-04-02T20:26:46.422Z,98127.78
2023-04-02T20:29:49.951Z,98126.97
2023-04-02T20:32:52.553Z,98124.66
2023-04-02T20:36:02.260Z,98129.91
2023-04-02T20:39:07.918Z,98133.72
2023-04-02T20:42:11.053Z,98129.22
2023-04-02T20:45:13.957Z,98138.44
2023-04-02T20:48:16.899Z,98147.78
2023-04-02T20:51:19.488Z,98155.22
2023-04-02T20:54:37.922Z,98162.41
2023-04-02T20:57:40.624Z,98164.09
2023-04-02T21:00:44.477Z,98164.13
2023-04-02T21:03:47.845Z,98171.66
2023-04-02T21:06:56.794Z,98180.00
2023-04-02T21:09:59.426Z,98174.16
2023-04-02T21:13:02.366Z,98173.75
2023-04-02T21:16:36.355Z,98173.91
2023-04-02T21:19:39.219Z,98189.91
2023-04-02T21:22:41.918Z,98194.53
2023-04-02T21:25:57.805Z,98197.38
2023-04-02T21:29:00.571Z,98199.12
2023-04-02T21:32:17.961Z,98205.19
2023-04-02T21:35:23.687Z,98211.53
2023-04-02T21:38:26.547Z,98210.44
2023-04-02T21:41:31.554Z,98220.41
2023-04-02T21:44:34.632Z,98215.41
2023-04-02T21:47:37.207Z,98212.88
2023-04-02T21:50:40.108Z,98215.97
2023-04-02T21:53:43.324Z,98220.25
2023-04-02T21:56:47.109Z,98223.19
2023-04-02T21:59:49.634Z,98220.69
2023-04-02T22:02:52.767Z,98223.81
2023-04-02T22:06:08.329Z,98221.34
2023-04-02T22:09:13.789Z,98229.53
2023-04-02T22:12:17.007Z,98226.03
2023-04-02T22:15:19.468Z,98220.78
2023-04-02T22:18:22.447Z,98228.94
2023-04-02T22:21:26.006Z,98229.84
2023-04-02T22:24:29.120Z,98229.97
2023-04-02T22:27:31.693Z,98235.34
2023-04-02T22:30:34.746Z,98234.53
2023-04-02T22:33:37.815Z,98239.19
2023-04-02T22:36:41.298Z,98228.78
2023-04-02T22:39:44.240Z,98247.13
2023-04-02T22:42:48.000Z,98243.62
2023-04-02T22:45:51.605Z,98246.31
2023-04-02T22:48:54.866Z,98254.34
2023-04-02T22:51:57.653Z,98253.59
2023-04-02T22:55:00.499Z,98255.41
2023-04-02T22:58:03.055Z,98257.34
2023-04-02T23:01:13.267Z,98254.75
2023-04-02T23:04:16.050Z,98252.16
2023-04-02T23:07:18.878Z,98263.13
2023-04-02T23:10:21.545Z,98260.66
2023-04-02T23:13:24.495Z,98261.66
2023-04-02T23:16:28.715Z,98267.91
2023-04-02T23:19:31.823Z,98262.75
2023-04-02T23:22:36.839Z,98269.03
2023-04-02T23:25:41.255Z,98278.97
2023-04-02T23:28:44.345Z,98279.16
2023-04-02T23:31:47.461Z,98277.44
2023-04-02T23:34:50.159Z,98280.19
2023-04-02T23:37:52.913Z,98283.03
2023-04-02T23:40:55.497Z,98294.63
2023-04-02T23:43:58.927Z,98290.25
2023-04-02T23:47:02.379Z,98295.63
2023-04-02T23:50:05.793Z,98294.88
2023-04-02T23:53:08.382Z,98292.28
2023-04-02T23:56:11.743Z,98292.34
2023-04-02T23:59:14.512Z,98281.94
